Archival Weather

Biggin Hill

Biggin Hill, United Kingdom (EGKB)

Report from: Sunday, September 25, 2022 11:50 AM BST
Current time: Saturday, March 2, 2024 11:08 AM GMT

Current weather – Weather history – Daily summaries
Weather forecast

Temperature14.0°C (57.2°F)
Dew point5.0°C (41.0°F)
Winds 10 kts (5.1 m/s, 11.5 mph) Vrb
Winds variableWinds variable from West-Northwest (300°) to North (359.999999°)
Visibility6.2 mi. (10 km)
Clouds Few clouds 3,200 ft. (975 m)
Altimeter30.12 in.Hg (1020 mB)
Relative humidity55 %
Density altitude-218 ft. (-66 m)
Flight conditions Visual Meteorological Conditions
Raw dataEGKB 251050Z 33010KT 300V360 9999 FEW032 14/05 Q1020
An error has occurred. This application may no longer respond until reloaded. Reload 🗙